Time;durP1;ratioP1;P1;durP2;ratioP2;P2;SDS_P1;SDS_P2;PMS_P1;PMS_P2;Temp;Humidity;BMP_temperature;BMP_pressure;BME280_temperature;BME280_humidity;BME280_pressure;Samples;Min_cycle;Max_cycle;Signal;HPM_P1;HPM_P2
2022/04/01 00:00:39;;;;;;;10.30;6.85;;;;;;;-0.35;nan;100469.38;5093850;28;20040;-57
2022/04/01 00:03:09;;;;;;;10.65;7.47;;;;;;;-0.33;nan;100466.81;5091594;28;20030;-56
2022/04/01 00:05:34;;;;;;;8.65;7.47;;;;;;;-0.44;nan;100469.34;5093420;28;20030;-55
2022/04/01 00:08:00;;;;;;;10.88;7.18;;;;;;;-0.78;nan;100397.59;5093525;28;20036;-54
2022/04/01 00:10:26;;;;;;;15.68;7.55;;;;;;;-0.34;nan;100473.69;5093688;28;20142;-56
2022/04/01 00:12:52;;;;;;;15.48;7.65;;;;;;;-0.35;nan;100479.72;5093680;28;20032;-54
2022/04/01 00:15:17;;;;;;;12.10;8.10;;;;;;;-0.79;nan;100411.38;5093949;28;20032;-55
2022/04/01 00:17:43;;;;;;;10.48;8.07;;;;;;;-0.40;nan;100476.25;5093437;28;20085;-53
2022/04/01 00:20:11;;;;;;;9.75;7.43;;;;;;;-0.35;nan;100494.38;5092133;28;20039;-55
2022/04/01 00:22:37;;;;;;;9.45;7.18;;;;;;;-0.35;nan;100494.38;5093229;28;20032;-54
2022/04/01 00:25:03;;;;;;;11.15;7.60;;;;;;;-0.42;nan;100469.34;5091946;28;20551;-57
2022/04/01 00:27:28;;;;;;;10.68;7.65;;;;;;;-0.35;nan;100492.63;5092136;28;20115;-56
2022/04/01 00:29:53;;;;;;;13.57;7.82;;;;;;;-0.38;nan;100496.97;5091889;28;20056;-54
2022/04/01 00:32:21;;;;;;;14.70;8.60;;;;;;;-0.45;nan;100477.06;5093547;28;20314;-54
2022/04/01 00:34:46;;;;;;;13.10;9.20;;;;;;;-0.49;nan;100478.78;5093149;28;20036;-57
2022/04/01 00:37:12;;;;;;;12.05;8.65;;;;;;;-0.49;nan;100496.00;5091924;28;20047;-56
2022/04/01 00:39:38;;;;;;;16.17;8.90;;;;;;;-0.50;nan;100494.28;5092970;28;20427;-55
2022/04/01 00:42:04;;;;;;;13.30;9.15;;;;;;;-1.03;nan;100416.38;5091687;28;20433;-57
2022/04/01 00:44:32;;;;;;;12.63;9.00;;;;;;;-0.44;nan;100517.59;5093048;28;20081;-54
2022/04/01 00:47:00;;;;;;;13.40;8.20;;;;;;;-0.65;nan;100477.81;5074740;28;20040;-55
2022/04/01 00:49:27;;;;;;;13.23;8.52;;;;;;;-0.53;nan;100502.88;5092820;28;20386;-54
2022/04/01 00:51:55;;;;;;;13.57;8.30;;;;;;;-0.58;nan;100494.22;5091562;28;20429;-55
2022/04/01 00:54:20;;;;;;;13.07;8.40;;;;;;;-0.47;nan;100515.00;5093032;28;20039;-55
2022/04/01 00:56:46;;;;;;;13.20;8.65;;;;;;;-0.76;nan;100469.09;5091692;28;20036;-58
2022/04/01 00:59:12;;;;;;;9.00;7.38;;;;;;;-0.88;nan;100461.28;5092809;28;20039;-55
2022/04/01 01:01:40;;;;;;;9.20;7.45;;;;;;;-0.99;nan;100437.06;5092623;28;20111;-55
2022/04/01 01:04:07;;;;;;;15.70;8.40;;;;;;;-0.95;nan;100454.31;5092574;28;20032;-57
2022/04/01 01:06:37;;;;;;;11.65;7.95;;;;;;;-0.46;nan;100524.47;5092386;28;20391;-56
2022/04/01 01:09:02;;;;;;;12.70;8.70;;;;;;;-0.51;nan;100521.84;5091577;28;20036;-56
2022/04/01 01:11:28;;;;;;;16.60;9.27;;;;;;;-0.59;nan;100519.22;5092146;28;20077;-55
2022/04/01 01:13:54;;;;;;;13.93;8.38;;;;;;;-0.66;nan;100503.63;5092515;28;20040;-57
2022/04/01 01:16:19;;;;;;;12.85;8.52;;;;;;;-0.49;nan;100530.47;5092201;28;20075;-55
2022/04/01 01:18:46;;;;;;;13.15;8.18;;;;;;;-0.58;nan;100510.59;5091134;28;20071;-57
2022/04/01 01:21:11;;;;;;;15.77;9.45;;;;;;;-0.48;nan;100533.94;5091013;28;20036;-56
2022/04/01 01:23:37;;;;;;;13.32;8.57;;;;;;;-0.54;nan;100514.06;5092409;28;20051;-57
2022/04/01 01:26:03;;;;;;;14.93;9.10;;;;;;;-0.48;nan;100526.19;5091254;28;20044;-55
2022/04/01 01:28:28;;;;;;;12.70;8.70;;;;;;;-0.53;nan;100514.94;5092371;28;20031;-57
2022/04/01 01:30:54;;;;;;;14.82;9.63;;;;;;;-0.48;nan;100521.88;5092249;28;20056;-58
2022/04/01 01:33:21;;;;;;;15.45;9.10;;;;;;;-0.43;nan;100529.66;5090945;28;20044;-56
2022/04/01 01:35:46;;;;;;;13.00;9.38;;;;;;;-0.46;nan;100519.28;5092029;28;20161;-57
2022/04/01 01:38:16;;;;;;;12.60;9.10;;;;;;;-0.48;nan;100505.50;5092488;28;20119;-58
2022/04/01 01:40:42;;;;;;;14.27;9.02;;;;;;;-0.86;nan;100454.41;5092160;28;20051;-55
2022/04/01 01:43:07;;;;;;;17.05;10.38;;;;;;;-0.45;nan;100521.03;5090979;28;20038;-58
2022/04/01 01:45:32;;;;;;;12.82;9.30;;;;;;;-0.80;nan;100480.28;5090813;28;20114;-55
2022/04/01 01:47:58;;;;;;;13.55;9.77;;;;;;;-0.37;nan;100543.50;5091975;28;20065;-59
2022/04/01 01:55:51;;;;;;;16.88;10.75;;;;;;;-0.44;nan;100521.06;5091949;28;20047;-58
2022/04/01 01:58:16;;;;;;;15.80;10.15;;;;;;;-0.76;nan;100479.44;5091768;28;20024;-57
2022/04/01 02:00:42;;;;;;;17.00;10.48;;;;;;;-0.83;nan;100469.94;5090642;28;20064;-57
2022/04/01 02:03:10;;;;;;;15.52;11.18;;;;;;;-0.85;nan;100469.06;5091900;28;20344;-58
2022/04/01 02:05:36;;;;;;;17.38;10.73;;;;;;;-0.36;nan;100568.50;5094435;28;20070;-55
2022/04/01 02:08:02;;;;;;;16.38;11.13;;;;;;;-0.36;nan;100545.25;5094872;28;20056;-56
2022/04/01 02:10:28;;;;;;;13.48;10.02;;;;;;;-0.77;nan;100472.56;5094755;28;20055;-53
2022/04/01 02:12:53;;;;;;;15.00;11.00;;;;;;;-0.34;nan;100546.09;5095846;28;20511;-58
2022/04/01 02:15:20;;;;;;;15.02;10.90;;;;;;;-0.40;nan;100535.72;5095619;28;20392;-60
2022/04/01 02:17:46;;;;;;;15.20;11.02;;;;;;;-0.77;nan;100471.69;5095982;28;20119;-58
2022/04/01 02:20:11;;;;;;;16.58;10.38;;;;;;;-0.32;nan;100570.25;5077593;28;20128;-61
2022/04/01 02:22:38;;;;;;;13.15;9.93;;;;;;;-0.34;nan;100546.09;5095923;28;20086;-55
2022/04/01 02:25:07;;;;;;;18.80;10.68;;;;;;;-0.33;nan;100549.56;5094519;28;20386;-60
2022/04/01 02:27:32;;;;;;;16.45;11.20;;;;;;;-0.40;nan;100552.94;5095662;28;20064;-59
2022/04/01 02:29:58;;;;;;;13.60;10.07;;;;;;;-0.28;nan;100558.22;5095406;28;20051;-58
2022/04/01 02:32:26;;;;;;;14.70;9.90;;;;;;;-0.34;nan;100559.03;5095552;28;20090;-58
2022/04/01 02:34:51;;;;;;;13.68;10.07;;;;;;;-0.34;nan;100565.91;5095547;28;20056;-56
2022/04/01 02:37:21;;;;;;;15.85;10.68;;;;;;;-0.32;nan;100569.41;5094214;28;20127;-57
2022/04/01 02:39:46;;;;;;;14.30;10.30;;;;;;;-0.30;nan;100571.16;5095525;28;20043;-60
2022/04/01 02:42:12;;;;;;;14.52;9.32;;;;;;;-0.35;nan;100572.81;5095155;28;20505;-58
2022/04/01 02:44:37;;;;;;;14.85;10.02;;;;;;;-0.66;nan;100506.22;5093841;28;20085;-54
2022/04/01 02:47:03;;;;;;;15.38;9.95;;;;;;;-0.33;nan;100580.59;5094102;28;20416;-58
2022/04/01 02:49:29;;;;;;;14.52;10.60;;;;;;;-0.70;nan;100509.66;5094275;28;20036;-56
2022/04/01 02:51:54;;;;;;;16.08;10.63;;;;;;;-0.25;nan;100581.50;5093972;28;20028;-59
2022/04/01 02:54:22;;;;;;;14.77;10.50;;;;;;;-0.23;nan;100600.47;5094932;28;20039;-57
2022/04/01 02:56:48;;;;;;;13.90;9.75;;;;;;;-0.66;nan;100512.28;5095048;28;20039;-57
2022/04/01 02:59:13;;;;;;;16.83;10.75;;;;;;;-0.21;nan;100597.06;5094918;28;20451;-54
2022/04/01 03:01:40;;;;;;;14.20;10.07;;;;;;;-0.62;nan;100533.84;5094011;28;20032;-57
2022/04/01 03:04:10;;;;;;;15.18;10.45;;;;;;;-0.22;nan;100603.09;5095090;28;20063;-53
2022/04/01 03:06:43;;;;;;;14.88;11.25;;;;;;;-0.20;nan;100608.25;5094958;28;20042;-53
2022/04/01 03:09:13;;;;;;;16.40;10.77;;;;;;;-0.18;nan;100611.75;5094841;28;20032;-56
2022/04/01 03:11:39;;;;;;;19.10;9.63;;;;;;;-0.22;nan;100585.00;5094701;28;20056;-57
2022/04/01 03:14:06;;;;;;;17.13;10.27;;;;;;;-0.50;nan;100540.81;5094694;28;20449;-53
2022/04/01 03:16:32;;;;;;;14.93;10.50;;;;;;;-0.21;nan;100609.13;5093452;28;20419;-54
2022/04/01 03:18:59;;;;;;;16.80;9.63;;;;;;;-0.54;nan;100546.81;5093408;28;20469;-58
2022/04/01 03:21:25;;;;;;;15.25;10.57;;;;;;;-0.54;nan;100551.97;5094504;28;20032;-57
2022/04/01 03:23:51;;;;;;;12.93;10.02;;;;;;;-0.18;nan;100619.50;5093306;28;20067;-54
2022/04/01 03:26:16;;;;;;;15.63;10.60;;;;;;;-0.25;nan;100610.84;5094728;28;20036;-58
2022/04/01 03:28:42;;;;;;;11.32;9.35;;;;;;;-0.54;nan;100562.31;5094675;28;20043;-58
2022/04/01 03:31:09;;;;;;;12.00;9.85;;;;;;;-0.19;nan;100628.97;5094307;28;20492;-57
2022/04/01 03:33:35;;;;;;;13.63;9.80;;;;;;;-0.21;nan;100633.28;5094342;28;20036;-58
2022/04/01 03:36:01;;;;;;;13.25;10.00;;;;;;;-0.27;nan;100622.91;5093018;28;20035;-59
2022/04/01 03:38:27;;;;;;;12.70;9.98;;;;;;;-0.25;nan;100646.16;5094064;28;20115;-58
2022/04/01 03:40:52;;;;;;;14.27;9.68;;;;;;;-0.27;nan;100622.91;5094175;28;20055;-57
2022/04/01 03:43:20;;;;;;;12.00;9.38;;;;;;;-0.32;nan;100627.13;5093140;28;20465;-54
2022/04/01 03:45:48;;;;;;;13.95;9.75;;;;;;;-0.24;nan;100632.41;5093950;28;20093;-56
2022/04/01 03:48:35;;;;;;;15.38;9.73;;;;;;;-0.25;nan;100649.63;5092854;28;20027;-57
2022/04/01 03:51:01;;;;;;;14.77;9.70;;;;;;;-0.25;nan;100657.38;5093917;28;20028;-57
2022/04/01 03:53:28;;;;;;;14.55;9.93;;;;;;;-0.24;nan;100647.91;5094103;28;20024;-57
2022/04/01 03:55:56;;;;;;;10.68;8.75;;;;;;;-0.22;nan;100656.53;5092982;28;20028;-58
2022/04/01 03:58:27;;;;;;;12.07;8.57;;;;;;;-0.30;nan;100653.03;5093954;28;20031;-56
2022/04/01 04:00:52;;;;;;;17.05;9.45;;;;;;;-0.26;nan;100647.88;5094053;28;20024;-60
2022/04/01 04:03:18;;;;;;;12.88;8.75;;;;;;;-0.26;nan;100671.16;5093638;28;20036;-55
2022/04/01 04:05:46;;;;;;;13.02;8.88;;;;;;;-0.25;nan;100659.09;5093714;28;20028;-57
2022/04/01 04:08:12;;;;;;;12.93;8.63;;;;;;;-0.22;nan;100661.72;5092547;28;20031;-59
2022/04/01 04:10:37;;;;;;;10.00;7.68;;;;;;;-0.26;nan;100653.06;5094077;28;20036;-56
2022/04/01 04:13:07;;;;;;;14.43;9.10;;;;;;;-0.20;nan;100662.59;5075469;28;20032;-56
2022/04/01 04:15:57;;;;;;;13.38;9.50;;;;;;;-0.15;nan;100672.13;5092450;28;20039;-55
2022/04/01 04:18:30;;;;;;;11.37;9.17;;;;;;;-0.47;nan;100613.25;5092013;28;20032;-54
2022/04/01 04:20:55;;;;;;;10.75;8.23;;;;;;;-0.15;nan;100695.44;5093738;28;20270;-56
2022/04/01 04:23:46;;;;;;;11.90;9.15;;;;;;;-0.16;nan;100683.34;5092084;28;20519;-58
2022/04/01 04:26:15;;;;;;;11.47;8.83;;;;;;;-0.45;nan;100629.63;5093284;28;20080;-60
2022/04/01 04:28:44;;;;;;;13.43;9.02;;;;;;;-0.13;nan;100688.53;5092887;28;20019;-57
2022/04/01 04:31:12;;;;;;;11.15;8.43;;;;;;;-0.11;nan;100694.56;5093293;28;20051;-55
2022/04/01 04:33:47;;;;;;;12.13;8.90;;;;;;;-0.09;nan;100686.84;5093616;28;20392;-54
2022/04/01 04:36:18;;;;;;;14.00;8.25;;;;;;;-0.10;nan;100704.09;5092152;28;20272;-55
2022/04/01 04:38:46;;;;;;;12.38;8.35;;;;;;;-0.10;nan;100713.56;5093655;28;20469;-55
2022/04/01 04:41:12;;;;;;;11.88;8.38;;;;;;;-0.12;nan;100710.94;5091973;28;20492;-56
2022/04/01 04:43:41;;;;;;;15.90;8.63;;;;;;;-0.06;nan;100716.16;5092090;28;20035;-57
2022/04/01 04:46:08;;;;;;;13.07;8.18;;;;;;;-0.14;nan;100701.44;5091837;28;20032;-56
2022/04/01 04:48:34;;;;;;;13.30;8.50;;;;;;;-0.09;nan;100736.84;5093409;28;20031;-56
2022/04/01 04:51:02;;;;;;;12.38;8.02;;;;;;;-0.52;nan;100651.97;5092918;28;20069;-57
2022/04/01 04:53:30;;;;;;;9.43;6.88;;;;;;;-0.14;nan;100729.91;5092663;28;20536;-52
2022/04/01 04:55:59;;;;;;;12.48;7.32;;;;;;;-0.15;nan;100728.19;5091829;28;20016;-58
2022/04/01 04:58:30;;;;;;;9.15;7.60;;;;;;;-0.21;nan;100713.47;5092809;28;20056;-55
2022/04/01 05:01:01;;;;;;;13.15;7.55;;;;;;;-0.49;nan;100682.16;5091676;28;20466;-52
2022/04/01 05:03:37;;;;;;;11.00;8.10;;;;;;;-0.16;nan;100737.66;5092657;28;20028;-56
2022/04/01 05:06:03;;;;;;;12.20;8.02;;;;;;;-0.13;nan;100762.69;5092508;28;20050;-57
2022/04/01 05:08:50;;;;;;;11.77;7.65;;;;;;;-0.11;nan;100771.31;5074822;28;20115;-58
2022/04/01 05:11:41;;;;;;;11.23;8.13;;;;;;;-0.49;nan;100697.66;5092584;28;20043;-57
2022/04/01 05:14:50;;;;;;;11.48;7.90;;;;;;;-0.11;nan;100766.16;5091218;28;20403;-59
2022/04/01 05:17:35;;;;;;;8.35;6.53;;;;;;;-0.17;nan;100753.16;5010115;28;20129;-55
2022/04/01 05:20:01;;;;;;;9.85;7.20;;;;;;;-0.12;nan;100769.59;5085974;28;20044;-56
2022/04/01 05:22:37;;;;;;;9.38;6.75;;;;;;;-0.11;nan;100774.78;5091194;28;20392;-55
2022/04/01 05:25:04;;;;;;;12.57;6.85;;;;;;;-0.12;nan;100779.94;5091151;28;20039;-50
2022/04/01 05:27:31;;;;;;;9.88;7.00;;;;;;;-0.11;nan;100789.44;5091147;28;20392;-53
2022/04/01 05:30:14;;;;;;;8.30;6.30;;;;;;;-0.19;nan;100779.03;5091320;28;20073;-55
2022/04/01 05:32:42;;;;;;;8.32;5.90;;;;;;;-0.10;nan;100812.75;5092119;28;20412;-55
2022/04/01 05:35:09;;;;;;;9.40;5.85;;;;;;;-0.45;nan;100733.91;5090927;28;20369;-54
2022/04/01 05:37:35;;;;;;;8.27;6.38;;;;;;;-0.16;nan;100796.28;5090881;28;20028;-53
2022/04/01 05:40:05;;;;;;;8.13;5.85;;;;;;;-0.08;nan;100800.69;5091571;28;20043;-57
2022/04/01 05:42:33;;;;;;;6.75;5.60;;;;;;;-0.48;nan;100733.00;5091825;28;20097;-55
2022/04/01 05:44:59;;;;;;;7.05;5.43;;;;;;;-0.19;nan;100788.50;5092097;28;20101;-53
2022/04/01 05:47:25;;;;;;;8.65;5.03;;;;;;;-0.03;nan;100818.84;5091826;28;20036;-52
2022/04/01 05:49:54;;;;;;;6.28;5.00;;;;;;;-0.41;nan;100756.38;5091848;28;20024;-56
2022/04/01 05:52:21;;;;;;;8.07;4.78;;;;;;;-0.12;nan;100819.59;5090504;28;20077;-55
2022/04/01 05:54:47;;;;;;;7.60;5.32;;;;;;;-0.36;nan;100761.59;5091856;28;20036;-54
2022/04/01 05:57:12;;;;;;;6.75;5.35;;;;;;;-0.10;nan;100804.97;5091879;28;20036;-52
2022/04/01 05:59:38;;;;;;;5.82;4.28;;;;;;;-0.30;nan;100775.47;5091971;28;20418;-53
2022/04/01 06:02:35;;;;;;;7.00;5.22;;;;;;;0.07;nan;100828.44;5090559;28;20498;-52
2022/04/01 06:05:07;;;;;;;5.93;4.45;;;;;;;0.10;nan;100830.19;5086537;28;20086;-51
2022/04/01 06:07:44;;;;;;;5.15;4.30;;;;;;;0.15;nan;100836.25;5091994;28;20032;-52
2022/04/01 06:10:24;;;;;;;5.03;4.28;;;;;;;0.19;nan;100845.78;5091764;28;20040;-50
2022/04/01 06:13:14;;;;;;;6.93;4.50;;;;;;;0.23;nan;100837.22;5091676;28;20393;-54
2022/04/01 06:16:18;;;;;;;5.38;3.95;;;;;;;0.31;nan;100856.28;5091907;28;20040;-55
2022/04/01 06:18:55;;;;;;;6.63;4.55;;;;;;;0.36;nan;100855.47;5091500;28;20036;-56
2022/04/01 06:21:23;;;;;;;6.43;3.70;;;;;;;0.05;nan;100788.75;5091640;28;20384;-55
2022/04/01 06:24:16;;;;;;;4.97;3.50;;;;;;;0.55;nan;100857.34;5090585;28;20047;-56
2022/04/01 06:26:57;;;;;;;4.45;3.35;;;;;;;0.34;nan;100810.56;5088053;28;20054;-55
2022/04/01 06:29:35;;;;;;;5.72;3.88;;;;;;;0.40;nan;100800.25;5091568;28;20020;-55
2022/04/01 06:32:13;;;;;;;5.38;3.70;;;;;;;0.86;nan;100870.53;5091130;28;20055;-56
2022/04/01 06:34:55;;;;;;;6.90;3.63;;;;;;;0.95;nan;100871.47;5090086;28;20039;-56
2022/04/01 06:37:23;;;;;;;5.63;3.35;;;;;;;0.63;nan;100812.50;5090266;28;20032;-57
2022/04/01 06:40:04;;;;;;;4.07;2.95;;;;;;;1.14;nan;100883.69;5091493;28;20035;-56
2022/04/01 06:42:31;;;;;;;4.15;2.70;;;;;;;0.81;nan;100828.19;5091453;28;20472;-54
2022/04/01 06:44:57;;;;;;;4.85;2.42;;;;;;;1.28;nan;100877.75;5091326;28;20131;-56
2022/04/01 06:47:23;;;;;;;4.93;2.80;;;;;;;1.42;nan;100905.50;5090614;28;20123;-56
2022/04/01 06:49:48;;;;;;;5.53;2.65;;;;;;;1.63;nan;100894.34;5089999;28;20032;-55
2022/04/01 06:52:14;;;;;;;2.83;2.33;;;;;;;1.67;nan;100890.91;5094509;28;20387;-57
2022/04/01 06:54:40;;;;;;;4.25;2.25;;;;;;;1.83;nan;100908.28;5093837;28;20034;-58
2022/04/01 06:57:06;;;;;;;5.93;2.55;;;;;;;1.81;nan;100902.19;5094413;28;20028;-57
2022/04/01 06:59:34;;;;;;;2.88;2.13;;;;;;;1.95;nan;100920.44;5094813;28;20112;-57
2022/04/01 07:01:59;;;;;;;2.42;2.00;;;;;;;1.76;nan;100936.78;5094913;28;20127;-57
2022/04/01 07:04:24;;;;;;;4.25;2.30;;;;;;;1.80;nan;100920.38;5093220;28;20055;-57
2022/04/01 07:06:50;;;;;;;3.70;2.00;;;;;;;1.63;nan;100912.53;5093544;28;20519;-57
2022/04/01 07:09:15;;;;;;;4.57;2.55;;;;;;;1.55;nan;100909.00;5094194;28;20023;-55
2022/04/01 07:11:40;;;;;;;3.13;2.30;;;;;;;1.65;nan;100929.81;5094352;28;20468;-57
2022/04/01 07:14:06;;;;;;;2.97;2.13;;;;;;;1.43;nan;100912.38;5093093;28;20032;-57
2022/04/01 07:16:31;;;;;;;2.30;2.10;;;;;;;1.60;nan;100933.25;5094077;28;20127;-57
2022/04/01 07:18:56;;;;;;;4.38;2.25;;;;;;;1.61;nan;100948.81;5094208;28;20032;-58
2022/04/01 07:21:22;;;;;;;2.00;1.80;;;;;;;1.56;nan;100936.69;5094888;28;20431;-57
2022/04/01 07:23:47;;;;;;;3.67;2.17;;;;;;;1.65;nan;100950.56;5093049;28;20074;-56
2022/04/01 07:26:12;;;;;;;8.73;1.80;;;;;;;1.39;nan;100900.28;5094279;28;20032;-54
2022/04/01 07:28:38;;;;;;;3.25;1.70;;;;;;;1.31;nan;100908.88;5082124;28;20110;-53
2022/04/01 07:32:29;;;;;;;2.33;2.00;;;;;;;1.66;nan;100967.88;5074068;28;20056;-55
2022/04/01 07:33:48;;;;;;;3.42;1.50;;;;;;;1.82;nan;100968.81;5073837;28;20049;-57
2022/04/01 07:36:14;;;;;;;6.45;1.60;;;;;;;2.06;nan;100966.34;5072699;28;20039;-57
2022/04/01 07:38:39;;;;;;;3.03;1.98;;;;;;;2.10;nan;100973.28;5074112;28;20067;-58
2022/04/01 07:41:05;;;;;;;5.60;1.55;;;;;;;1.80;nan;100904.78;5056193;28;20082;-58
2022/04/01 07:43:30;;;;;;;3.55;1.85;;;;;;;2.34;nan;100980.28;5073988;28;20060;-58
2022/04/01 07:45:57;;;;;;;2.22;1.75;;;;;;;2.33;nan;100988.97;5072385;28;20047;-59
2022/04/01 07:48:22;;;;;;;2.75;1.60;;;;;;;1.36;nan;100829.38;5073803;28;20036;-56
2022/04/01 07:50:48;;;;;;;2.08;1.67;;;;;;;2.45;nan;101001.97;5073731;28;20048;-58
2022/04/01 07:53:13;;;;;;;1.48;1.35;;;;;;;2.11;nan;100924.81;5073642;28;20036;-59
2022/04/01 07:55:39;;;;;;;2.38;1.48;;;;;;;2.74;nan;100996.88;5074030;28;20067;-59
2022/04/01 07:58:04;;;;;;;2.53;1.95;;;;;;;2.70;nan;100964.78;5073672;28;20078;-58
2022/04/01 08:00:30;;;;;;;6.15;1.50;;;;;;;2.63;nan;100950.03;5073579;28;20037;-60
2022/04/01 08:02:56;;;;;;;4.38;1.33;;;;;;;2.70;nan;100928.41;5071732;28;20028;-60
2022/04/01 08:05:22;;;;;;;5.43;1.58;;;;;;;3.32;nan;101018.56;5073405;28;20032;-57
2022/04/01 08:07:47;;;;;;;3.35;1.58;;;;;;;3.35;nan;101014.25;5073351;28;20043;-60
2022/04/01 08:10:12;;;;;;;3.13;1.17;;;;;;;3.83;nan;101007.22;5072196;28;20453;-60
2022/04/01 08:12:38;;;;;;;2.08;0.98;;;;;;;3.75;nan;101041.09;5073383;28;20032;-59
2022/04/01 08:15:03;;;;;;;3.05;1.25;;;;;;;3.19;nan;100968.28;5071905;28;20052;-60
2022/04/01 08:17:29;;;;;;;4.55;1.35;;;;;;;3.65;nan;101034.16;5073216;28;20037;-59
2022/04/01 08:19:55;;;;;;;3.30;1.55;;;;;;;3.83;nan;101030.66;5073216;28;20120;-59
2022/04/01 08:22:21;;;;;;;3.05;1.30;;;;;;;3.20;nan;100983.03;5055556;28;20060;-60
2022/04/01 08:24:47;;;;;;;3.53;1.67;;;;;;;3.62;nan;101028.09;5073255;28;20068;-61
2022/04/01 08:27:14;;;;;;;2.28;1.40;;;;;;;3.44;nan;100968.25;5071920;28;20036;-60
2022/04/01 08:29:39;;;;;;;2.25;1.48;;;;;;;4.03;nan;101036.69;5073043;28;20069;-59
2022/04/01 08:32:07;;;;;;;2.05;1.30;;;;;;;4.23;nan;101018.41;5073264;28;20135;-60
2022/04/01 08:34:33;;;;;;;2.22;1.00;;;;;;;4.83;nan;101064.16;5071639;28;20048;-59
2022/04/01 08:36:59;;;;;;;1.65;1.10;;;;;;;4.80;nan;100992.03;5073199;28;20148;-60
2022/04/01 08:39:24;;;;;;;1.45;1.10;;;;;;;5.62;nan;101067.94;5072876;28;20461;-59
2022/04/01 08:41:49;;;;;;;1.08;0.80;;;;;;;5.75;nan;101075.69;5073010;28;20067;-62
2022/04/01 08:44:15;;;;;;;3.35;0.88;;;;;;;5.73;nan;101064.38;5072787;28;20040;-61
2022/04/01 08:46:41;;;;;;;1.25;1.00;;;;;;;6.63;nan;101091.31;5072717;28;20025;-61
2022/04/01 08:49:06;;;;;;;1.55;0.98;;;;;;;6.66;nan;101093.88;5072674;28;20515;-60
2022/04/01 08:51:32;;;;;;;2.05;1.00;;;;;;;6.35;nan;101097.75;5071598;28;20105;-62
2022/04/01 08:53:57;;;;;;;2.38;1.00;;;;;;;5.36;nan;101032.50;5072750;28;20143;-60
2022/04/01 08:56:23;;;;;;;1.90;1.05;;;;;;;4.89;nan;101070.22;5072574;28;20040;-62
2022/04/01 08:58:48;;;;;;;2.50;1.38;;;;;;;4.48;nan;101040.88;5071325;28;20029;-60
2022/04/01 09:01:14;;;;;;;1.42;0.93;;;;;;;4.73;nan;101112.88;5072439;28;20527;-62
2022/04/01 09:03:41;;;;;;;1.42;0.80;;;;;;;4.57;nan;101107.75;5072292;28;20465;-59
2022/04/01 09:06:07;;;;;;;2.83;1.52;;;;;;;4.28;nan;101077.44;5071357;28;20370;-60
2022/04/01 09:08:37;;;;;;;1.33;0.77;;;;;;;4.52;nan;101113.81;5072446;28;20159;-60
2022/04/01 09:11:19;;;;;;;3.38;1.05;;;;;;;4.61;nan;101127.72;5071437;28;20033;-61
2022/04/01 09:13:47;;;;;;;1.15;0.93;;;;;;;4.46;nan;101118.22;5071370;28;20443;-61
2022/04/01 09:16:27;;;;;;;1.65;1.17;;;;;;;3.98;nan;101067.09;5072447;28;20036;-58
2022/04/01 09:18:57;;;;;;;2.03;1.27;;;;;;;4.45;nan;101140.81;5072572;28;20040;-60
2022/04/01 09:21:34;;;;;;;1.80;0.95;;;;;;;4.07;nan;101042.75;5072035;28;20484;-54
2022/04/01 09:24:01;;;;;;;1.48;1.15;;;;;;;4.34;nan;101069.59;5070873;28;20107;-57
2022/04/01 09:26:32;;;;;;;3.58;1.38;;;;;;;4.03;nan;101015.84;5087557;28;20032;-59
2022/04/01 09:28:59;;;;;;;1.33;1.00;;;;;;;4.33;nan;101083.50;5071198;28;20056;-55
2022/04/01 09:31:25;;;;;;;1.00;0.90;;;;;;;5.01;nan;101129.28;5071960;28;20056;-62
2022/04/01 09:33:52;;;;;;;1.50;0.73;;;;;;;5.18;nan;101132.66;5072116;28;20471;-55
2022/04/01 09:36:26;;;;;;;1.95;1.00;;;;;;;5.29;nan;101159.56;5072206;28;20035;-61
2022/04/01 09:38:55;;;;;;;4.53;1.00;;;;;;;5.33;nan;101161.28;5072174;28;20021;-57
2022/04/01 09:41:21;;;;;;;3.78;1.10;;;;;;;5.49;nan;101152.47;5072066;28;20032;-55
2022/04/01 09:43:46;;;;;;;1.90;0.90;;;;;;;5.64;nan;101157.59;5070983;28;20033;-59
2022/04/01 09:46:24;;;;;;;1.92;1.00;;;;;;;5.22;nan;101113.50;5071840;28;20120;-60
2022/04/01 09:48:50;;;;;;;2.10;1.23;;;;;;;5.25;nan;101133.50;5072073;28;20378;-58
2022/04/01 09:51:15;;;;;;;1.27;1.17;;;;;;;5.41;nan;101184.72;5072132;28;20036;-58
2022/04/01 09:53:50;;;;;;;1.30;0.85;;;;;;;5.29;nan;101089.09;5070256;28;20423;-63
2022/04/01 09:56:15;;;;;;;2.45;0.80;;;;;;;5.09;nan;101110.09;5071901;28;20503;-59
2022/04/01 09:58:42;;;;;;;2.75;1.00;;;;;;;5.71;nan;101173.22;5070697;28;20057;-58
2022/04/01 10:01:08;;;;;;;1.35;1.00;;;;;;;5.74;nan;101171.47;5070586;28;20400;-60
2022/04/01 10:03:33;;;;;;;1.60;0.90;;;;;;;5.77;nan;101154.88;5071694;28;20055;-61
2022/04/01 10:05:59;;;;;;;2.30;1.20;;;;;;;5.87;nan;101180.94;5071642;28;20028;-56
2022/04/01 10:08:26;;;;;;;2.47;1.20;;;;;;;5.41;nan;101174.28;5054077;28;20370;-58
2022/04/01 10:10:51;;;;;;;3.00;1.00;;;;;;;4.73;nan;101059.88;5071916;28;20032;-59
2022/04/01 10:13:26;;;;;;;2.30;1.02;;;;;;;5.19;nan;101159.63;5070528;28;20040;-59
2022/04/01 10:15:53;;;;;;;1.05;0.90;;;;;;;5.42;nan;101184.72;5070639;28;20392;-58
2022/04/01 10:18:19;;;;;;;2.35;0.80;;;;;;;4.28;nan;101121.75;5070382;28;20060;-58
2022/04/01 10:20:44;;;;;;;2.08;0.98;;;;;;;4.48;nan;101166.88;5070336;28;20040;-58
2022/04/01 10:23:11;;;;;;;1.17;1.08;;;;;;;4.68;nan;101179.84;5071568;28;20032;-58
2022/04/01 10:26:01;;;;;;;1.02;0.90;;;;;;;4.93;nan;101183.25;5072120;28;20032;-61
2022/04/01 10:28:27;;;;;;;1.10;0.97;;;;;;;4.22;nan;101139.13;5075319;28;20039;-60
2022/04/01 10:30:54;;;;;;;2.33;1.00;;;;;;;4.66;nan;101192.03;5090725;28;20060;-57
2022/04/01 10:33:31;;;;;;;3.92;1.00;;;;;;;4.32;nan;101139.09;5075027;28;20035;-58
2022/04/01 10:35:57;;;;;;;0.80;0.80;;;;;;;4.61;nan;101190.28;5074025;28;20044;-59
2022/04/01 10:38:33;;;;;;;2.35;1.00;;;;;;;4.76;nan;101180.66;5075206;28;20033;-58
2022/04/01 10:41:12;;;;;;;1.25;0.65;;;;;;;4.74;nan;101142.44;5073881;28;20037;-55
2022/04/01 10:43:44;;;;;;;1.42;0.88;;;;;;;5.03;nan;101145.78;5074985;28;20032;-61
2022/04/01 10:46:10;;;;;;;0.85;0.85;;;;;;;5.40;nan;101219.56;5074922;28;20086;-57
2022/04/01 10:51:38;;;;;;;2.05;0.90;;;;;;;6.25;nan;101198.91;5073988;28;20121;-55
2022/04/01 10:54:23;;;;;;;0.82;0.68;;;;;;;6.41;nan;101200.53;5074691;28;20143;-58
2022/04/01 10:57:01;;;;;;;1.30;0.80;;;;;;;6.19;nan;101139.72;5074689;28;20116;-56
2022/04/01 10:59:27;;;;;;;2.05;0.93;;;;;;;5.61;nan;101144.56;5074865;28;20420;-56
2022/04/01 11:01:52;;;;;;;2.47;0.77;;;;;;;5.64;nan;101216.78;5074736;28;20043;-58
2022/04/01 11:04:18;;;;;;;1.33;0.82;;;;;;;5.32;nan;101213.47;5073287;28;20033;-56
2022/04/01 11:07:21;;;;;;;3.28;0.90;;;;;;;6.05;nan;101219.13;5074991;28;20041;-58
2022/04/01 11:09:47;;;;;;;3.22;1.10;;;;;;;5.66;nan;101217.66;5032452;28;20040;-60
2022/04/01 11:12:14;;;;;;;2.28;1.20;;;;;;;5.05;nan;101223.16;5032192;28;20033;-54
2022/04/01 11:15:08;;;;;;;1.73;1.50;;;;;;;4.64;nan;101164.22;5052158;28;20113;-56
2022/04/01 11:17:34;;;;;;;2.58;1.60;;;;;;;4.82;nan;101217.16;5074336;28;20162;-57
2022/04/01 11:20:05;;;;;;;1.98;1.02;;;;;;;4.97;nan;101224.94;5074280;28;20112;-59
2022/04/01 11:22:40;;;;;;;1.73;1.33;;;;;;;4.44;nan;101156.44;5074262;28;20099;-59
2022/04/01 11:25:24;;;;;;;2.67;1.10;;;;;;;4.52;nan;101165.13;5074332;28;20032;-56
2022/04/01 11:27:58;;;;;;;2.33;1.40;;;;;;;4.97;nan;101222.34;5074288;28;20029;-59
2022/04/01 11:30:25;;;;;;;3.78;1.38;;;;;;;4.75;nan;101194.59;5073405;28;20040;-60
2022/04/01 11:33:02;;;;;;;4.00;1.50;;;;;;;5.80;nan;101200.16;5072768;28;20462;-58
2022/04/01 11:35:30;;;;;;;2.15;1.50;;;;;;;6.21;nan;101226.00;5074041;28;20032;-60
2022/04/01 11:37:56;;;;;;;1.52;1.23;;;;;;;5.66;nan;101231.56;5073018;28;20532;-60
2022/04/01 11:40:28;;;;;;;2.42;1.45;;;;;;;4.98;nan;101239.75;5074110;28;20036;-54
2022/04/01 11:42:58;;;;;;;1.55;1.38;;;;;;;4.44;nan;101217.25;5073975;28;20059;-59
2022/04/01 11:45:30;;;;;;;2.03;1.40;;;;;;;4.36;nan;101238.97;5072399;28;20477;-57
2022/04/01 11:47:56;;;;;;;1.58;1.05;;;;;;;4.89;nan;101198.03;5072171;28;20366;-54
2022/04/01 11:50:22;;;;;;;2.60;1.48;;;;;;;5.88;nan;101202.72;5073980;28;20047;-54
2022/04/01 11:52:56;;;;;;;2.20;1.88;;;;;;;5.88;nan;101242.78;5072509;28;20032;-61
2022/04/01 11:55:24;;;;;;;1.50;1.40;;;;;;;4.86;nan;101194.56;5073568;28;20033;-56
2022/04/01 11:57:51;;;;;;;1.83;1.40;;;;;;;4.42;nan;101198.16;5072604;28;20081;-58